Highland Park, New Jersey
Current Conditions -  °F | °C
As of 12:15 AM on Saturday 25 Oct 2014 (Local Time) from KLDJ Reporting Station
Clear Clear  
Wind Chill: 60°   Ceiling: Unl
Heat Index: 60°   Visibility: 10mi
Dew Point: 42°   Wind: 6mph
Humidity: 52%   Direction: 340°NNW
Pressure: 29.87"   Gusts: NA
Location:  40.5°N, 74.42°W
Report Text: KLDJ 250415Z AUTO 34005KT 10SM CLR 16/06 A2987 RMK AO2 T01570058
Loading
Personal Weather Stations






























Interactive Weather Map
Tropical Storm Tracking
New forecast layout! Learn more

10-Day Weather Forecast

Advertisements
Track Severe Weather on mobile